createdAt,value
2023-04-23T00:01:18.934Z,3.59
2023-04-23T00:03:50.419Z,3.50
2023-04-23T00:06:19.318Z,3.19
2023-04-23T00:08:48.448Z,2.54
2023-04-23T00:11:16.475Z,3.30
2023-04-23T00:13:44.793Z,3.81
2023-04-23T00:16:14.244Z,3.86
2023-04-23T00:18:42.214Z,3.98
2023-04-23T00:21:10.155Z,3.53
2023-04-23T00:23:39.502Z,2.98
2023-04-23T00:26:07.381Z,3.41
2023-04-23T00:28:35.317Z,3.32
2023-04-23T00:31:03.648Z,3.31
2023-04-23T00:33:31.764Z,3.23
2023-04-23T00:35:59.723Z,2.88
2023-04-23T00:38:28.428Z,3.20
2023-04-23T00:40:56.186Z,3.52
2023-04-23T00:43:24.483Z,3.39
2023-04-23T00:45:53.034Z,3.48
2023-04-23T00:48:21.748Z,3.09
2023-04-23T00:50:49.599Z,2.90
2023-04-23T00:53:17.899Z,1.70
2023-04-23T00:55:45.823Z,1.94
2023-04-23T00:58:13.711Z,2.66
2023-04-23T01:00:47.297Z,2.26
2023-04-23T01:03:18.933Z,1.74
2023-04-23T01:05:48.633Z,2.14
2023-04-23T01:08:18.901Z,2.49
2023-04-23T01:10:47.976Z,2.75
2023-04-23T01:13:16.379Z,2.92
2023-04-23T01:15:45.549Z,3.12
2023-04-23T01:18:15.425Z,2.80
2023-04-23T01:20:44.165Z,2.03
2023-04-23T01:23:12.358Z,2.58
2023-04-23T01:25:41.050Z,2.73
2023-04-23T01:28:09.525Z,2.61
2023-04-23T01:30:39.667Z,2.49
2023-04-23T01:33:08.726Z,2.47
2023-04-23T01:35:37.013Z,2.80
2023-04-23T01:38:07.210Z,2.89
2023-04-23T01:40:35.740Z,3.14
2023-04-23T01:43:04.755Z,3.03
2023-04-23T01:45:32.648Z,2.84
2023-04-23T01:48:01.493Z,2.97
2023-04-23T01:50:30.323Z,2.73
2023-04-23T01:52:58.368Z,2.75
2023-04-23T01:55:26.782Z,2.46
2023-04-23T01:57:54.746Z,2.63
2023-04-23T02:00:22.662Z,2.53
2023-04-23T02:02:54.205Z,2.52
2023-04-23T02:05:22.361Z,2.34
2023-04-23T02:07:52.126Z,1.87
2023-04-23T02:10:21.055Z,1.88
2023-04-23T02:12:50.390Z,2.19
2023-04-23T02:15:20.188Z,2.45
2023-04-23T02:17:51.643Z,2.32
2023-04-23T02:20:20.539Z,2.28
2023-04-23T02:22:49.908Z,2.47
2023-04-23T02:25:18.841Z,2.69
2023-04-23T02:27:49.108Z,2.51
2023-04-23T02:30:17.128Z,2.09
2023-04-23T02:32:44.996Z,2.09
2023-04-23T02:35:13.728Z,2.40
2023-04-23T02:37:41.774Z,2.62
2023-04-23T02:40:10.500Z,2.70
2023-04-23T02:42:39.063Z,2.46
2023-04-23T02:45:08.059Z,2.72
2023-04-23T02:47:35.977Z,2.77
2023-04-23T02:50:06.793Z,2.97
2023-04-23T02:52:34.819Z,3.22
2023-04-23T02:55:02.867Z,3.29
2023-04-23T02:57:31.412Z,3.26
2023-04-23T02:59:59.389Z,3.03
2023-04-23T03:02:35.258Z,3.02
2023-04-23T03:05:04.014Z,3.28
2023-04-23T03:07:32.604Z,3.46
2023-04-23T03:10:00.738Z,3.52
2023-04-23T03:12:31.973Z,3.61
2023-04-23T03:15:01.251Z,3.69
2023-04-23T03:17:31.318Z,3.79
2023-04-23T03:19:59.564Z,3.87
2023-04-23T03:22:27.503Z,3.99
2023-04-23T03:24:56.614Z,3.91
2023-04-23T03:27:24.537Z,4.08
2023-04-23T03:29:52.578Z,4.21
2023-04-23T03:32:20.935Z,4.31
2023-04-23T03:34:49.194Z,4.31
2023-04-23T03:37:17.261Z,4.38
2023-04-23T03:39:46.307Z,4.59
2023-04-23T03:42:16.614Z,4.79
2023-04-23T03:44:44.700Z,4.93
2023-04-23T03:47:12.948Z,5.10
2023-04-23T03:49:41.401Z,5.22
2023-04-23T03:52:09.463Z,5.43
2023-04-23T03:54:38.718Z,5.60
2023-04-23T03:57:09.773Z,5.79
2023-04-23T03:59:37.736Z,5.97
2023-04-23T04:02:18.175Z,6.16
2023-04-23T04:04:47.300Z,6.38
2023-04-23T04:07:18.514Z,6.60
2023-04-23T04:09:49.592Z,6.83
2023-04-23T04:12:17.606Z,7.05
2023-04-23T04:14:46.218Z,7.35
2023-04-23T04:17:16.335Z,7.61
2023-04-23T04:19:44.305Z,7.91
2023-04-23T04:22:12.345Z,8.19
2023-04-23T04:24:42.505Z,8.52
2023-04-23T04:27:11.894Z,8.80
2023-04-23T04:29:49.451Z,9.10
2023-04-23T04:32:17.348Z,9.36
2023-04-23T04:34:45.532Z,9.67
2023-04-23T04:37:13.411Z,9.92
2023-04-23T04:39:41.261Z,10.27
2023-04-23T04:42:09.902Z,10.56
2023-04-23T04:44:37.945Z,10.85
2023-04-23T04:47:08.510Z,11.09
2023-04-23T04:49:37.489Z,11.40
2023-04-23T04:52:05.642Z,11.68
2023-04-23T04:54:33.516Z,12.01
2023-04-23T04:57:02.752Z,12.37
2023-04-23T04:59:30.642Z,12.69
2023-04-23T05:01:58.707Z,12.99
2023-04-23T05:04:27.623Z,13.29
2023-04-23T05:06:55.551Z,13.63
2023-04-23T05:09:23.717Z,13.87
2023-04-23T05:11:52.249Z,14.23
2023-04-23T05:14:20.069Z,14.42
2023-04-23T05:16:47.908Z,14.67
2023-04-23T05:19:16.262Z,15.03
2023-04-23T05:21:44.214Z,15.16
2023-04-23T05:24:12.125Z,15.48
2023-04-23T05:26:40.310Z,15.69
2023-04-23T05:29:08.187Z,16.00
2023-04-23T05:31:36.135Z,16.33
2023-04-23T05:34:04.427Z,16.70
2023-04-23T05:36:32.380Z,16.96
2023-04-23T05:39:00.252Z,17.22
2023-04-23T05:41:28.430Z,17.36
2023-04-23T05:43:57.279Z,17.79
2023-04-23T05:46:25.205Z,18.20
2023-04-23T05:48:54.012Z,18.33
2023-04-23T05:51:22.442Z,18.29
2023-04-23T05:53:50.364Z,18.17
2023-04-23T05:56:18.660Z,19.05
2023-04-23T05:58:47.008Z,19.50
2023-04-23T06:01:14.994Z,19.80
2023-04-23T06:03:45.966Z,19.35
2023-04-23T06:06:14.463Z,18.89
2023-04-23T06:08:42.250Z,18.45
2023-04-23T06:11:28.794Z,18.54
2023-04-23T06:13:57.013Z,19.63
2023-04-23T06:16:25.627Z,19.73
2023-04-23T06:18:54.526Z,18.71
2023-04-23T06:21:23.622Z,18.73
2023-04-23T06:23:51.810Z,20.82
2023-04-23T06:26:20.077Z,21.16
2023-04-23T06:28:49.583Z,20.57
2023-04-23T06:31:20.104Z,20.81
2023-04-23T06:33:49.220Z,21.33
2023-04-23T06:36:17.007Z,22.08
2023-04-23T06:38:45.012Z,21.92
2023-04-23T06:41:13.506Z,22.87
2023-04-23T06:43:42.242Z,23.33
2023-04-23T06:46:15.695Z,22.55
2023-04-23T06:48:43.957Z,22.86
2023-04-23T06:51:12.142Z,22.25
2023-04-23T06:53:40.368Z,22.54
2023-04-23T06:56:10.185Z,22.09
2023-04-23T06:58:39.375Z,23.86
2023-04-23T07:01:11.773Z,24.46
2023-04-23T07:03:40.009Z,21.64
2023-04-23T07:06:08.325Z,23.88
2023-04-23T07:08:36.265Z,22.59
2023-04-23T07:11:04.211Z,24.61
2023-04-23T07:13:32.496Z,24.20
2023-04-23T07:16:00.572Z,24.77
2023-04-23T07:18:28.526Z,25.61
2023-04-23T07:20:57.090Z,22.65
2023-04-23T07:23:25.033Z,23.06
2023-04-23T07:25:52.972Z,23.29
2023-04-23T07:28:21.418Z,21.77
2023-04-23T07:30:49.636Z,23.06
2023-04-23T07:33:17.671Z,24.42
2023-04-23T07:35:46.542Z,24.86
2023-04-23T07:38:14.818Z,24.01
2023-04-23T07:40:46.513Z,26.69
2023-04-23T07:43:17.186Z,25.73
2023-04-23T07:45:47.023Z,25.51
2023-04-23T07:48:15.672Z,27.07
2023-04-23T07:50:43.522Z,22.74
2023-04-23T07:53:11.664Z,23.71
2023-04-23T07:55:39.836Z,24.33
2023-04-23T07:58:10.264Z,24.61
2023-04-23T08:00:38.136Z,24.77
2023-04-23T08:03:06.708Z,24.29
2023-04-23T08:05:34.815Z,21.93
2023-04-23T08:08:02.639Z,22.50
2023-04-23T08:10:30.807Z,19.65
2023-04-23T08:12:58.570Z,23.07
2023-04-23T08:15:26.557Z,25.17
2023-04-23T08:17:54.765Z,23.64
2023-04-23T08:20:22.574Z,25.97
2023-04-23T08:22:53.987Z,26.91
2023-04-23T08:25:22.361Z,24.95
2023-04-23T08:27:50.390Z,21.27
2023-04-23T08:30:18.254Z,20.29
2023-04-23T08:32:51.746Z,19.81
2023-04-23T08:35:20.138Z,21.91
2023-04-23T08:37:48.489Z,21.22
2023-04-23T08:40:17.419Z,27.67
2023-04-23T08:42:55.672Z,24.47
2023-04-23T08:45:25.306Z,21.96
2023-04-23T08:47:54.331Z,25.27
2023-04-23T08:50:23.611Z,26.17
2023-04-23T08:52:56.060Z,24.03
2023-04-23T08:55:24.806Z,20.84
2023-04-23T08:57:53.388Z,19.71
2023-04-23T09:00:26.566Z,18.74
2023-04-23T09:02:55.394Z,27.94
2023-04-23T09:05:23.756Z,24.52
2023-04-23T09:07:54.186Z,23.50
2023-04-23T09:10:23.076Z,25.64
2023-04-23T09:12:51.178Z,28.04
2023-04-23T09:15:19.306Z,26.87
2023-04-23T09:17:50.370Z,27.37
2023-04-23T09:20:18.609Z,25.30
2023-04-23T09:22:53.069Z,23.39
2023-04-23T09:25:23.965Z,26.95
2023-04-23T09:27:53.113Z,25.94
2023-04-23T09:30:21.960Z,25.04
2023-04-23T09:32:50.180Z,25.61
2023-04-23T09:35:22.573Z,26.50
2023-04-23T09:37:53.506Z,25.93
2023-04-23T09:40:24.794Z,28.83
2023-04-23T09:42:56.190Z,24.54
2023-04-23T09:45:28.106Z,22.51
2023-04-23T09:47:58.652Z,22.51
2023-04-23T09:50:35.064Z,21.88
2023-04-23T09:53:15.883Z,21.12
2023-04-23T09:55:45.424Z,22.45
2023-04-23T09:58:16.023Z,21.27
2023-04-23T10:00:44.140Z,24.33
2023-04-23T10:03:12.747Z,25.30
2023-04-23T10:06:00.525Z,23.58
2023-04-23T10:08:32.554Z,25.83
2023-04-23T10:11:13.740Z,21.41
2023-04-23T10:13:49.213Z,21.25
2023-04-23T10:16:23.049Z,24.75
2023-04-23T10:18:55.712Z,22.12
2023-04-23T10:21:39.468Z,22.81
2023-04-23T10:24:20.599Z,19.60
2023-04-23T10:26:50.165Z,20.78
2023-04-23T10:29:30.855Z,23.64
2023-04-23T10:32:01.405Z,26.74
2023-04-23T10:34:32.797Z,25.81
2023-04-23T10:37:02.432Z,24.65
2023-04-23T10:39:34.693Z,26.39
2023-04-23T10:42:04.747Z,28.69
2023-04-23T10:47:16.537Z,25.58
2023-04-23T10:49:45.174Z,24.44
2023-04-23T10:52:21.518Z,24.36
2023-04-23T10:55:01.919Z,27.75
2023-04-23T10:57:31.833Z,26.07
2023-04-23T11:00:02.626Z,25.71
2023-04-23T11:02:45.271Z,24.04
2023-04-23T11:05:13.752Z,25.76
2023-04-23T11:07:41.779Z,24.03
2023-04-23T11:10:14.441Z,22.40
2023-04-23T11:12:44.638Z,22.04
2023-04-23T11:15:15.315Z,23.45
2023-04-23T11:17:48.725Z,20.96
2023-04-23T11:20:21.355Z,21.15
2023-04-23T11:22:50.961Z,20.54
2023-04-23T11:25:24.184Z,21.49
2023-04-23T11:27:57.494Z,22.57
2023-04-23T11:30:27.977Z,22.35
2023-04-23T11:33:00.857Z,23.36
2023-04-23T11:35:30.747Z,22.48
2023-04-23T11:37:59.566Z,23.66
2023-04-23T11:40:31.280Z,22.05
2023-04-23T11:42:59.803Z,24.42
2023-04-23T11:45:29.943Z,23.57
2023-04-23T11:48:03.903Z,23.94
2023-04-23T11:50:34.494Z,23.70
2023-04-23T11:53:08.187Z,23.28
2023-04-23T11:55:36.868Z,24.56
2023-04-23T11:58:05.063Z,24.89
2023-04-23T12:00:32.999Z,23.62
2023-04-23T12:03:03.494Z,23.54
2023-04-23T12:05:40.138Z,23.68
2023-04-23T12:08:20.174Z,23.48
2023-04-23T12:10:51.735Z,22.89
2023-04-23T12:13:25.469Z,22.72
2023-04-23T12:15:56.972Z,22.46
2023-04-23T12:18:32.495Z,22.11
2023-04-23T12:21:11.429Z,23.09
2023-04-23T12:23:42.045Z,24.11
2023-04-23T12:26:15.697Z,24.66
2023-04-23T12:28:55.837Z,25.60
2023-04-23T12:31:25.821Z,25.66
2023-04-23T12:33:59.619Z,25.37
2023-04-23T12:36:35.412Z,25.45
2023-04-23T12:39:25.072Z,24.40
2023-04-23T12:42:05.199Z,25.16
2023-04-23T12:44:37.188Z,26.41
2023-04-23T12:47:07.865Z,25.99
2023-04-23T12:49:38.705Z,26.57
2023-04-23T12:52:07.686Z,26.59
2023-04-23T12:54:40.877Z,25.76
2023-04-23T12:57:12.857Z,26.14
2023-04-23T12:59:41.406Z,26.73
2023-04-23T13:02:10.087Z,27.52
2023-04-23T13:04:38.126Z,27.96
2023-04-23T13:07:06.622Z,27.93
2023-04-23T13:09:36.344Z,28.14
2023-04-23T13:12:04.329Z,28.49
2023-04-23T13:14:32.783Z,29.01
2023-04-23T13:17:01.548Z,29.10
2023-04-23T13:19:31.923Z,28.93
2023-04-23T13:22:00.072Z,29.14
2023-04-23T13:24:28.604Z,29.23
2023-04-23T13:27:00.503Z,29.07
2023-04-23T13:29:31.329Z,29.47
2023-04-23T13:31:59.262Z,29.54
2023-04-23T13:34:27.102Z,29.33
2023-04-23T13:36:58.689Z,27.69
2023-04-23T13:39:42.067Z,27.42
2023-04-23T13:42:14.833Z,27.97
2023-04-23T13:44:45.132Z,28.91
2023-04-23T13:47:17.758Z,28.84
2023-04-23T13:49:50.054Z,28.68
2023-04-23T13:52:22.844Z,29.00
2023-04-23T13:54:57.438Z,28.44
2023-04-23T13:57:31.388Z,28.60
2023-04-23T14:00:02.974Z,27.62
2023-04-23T14:02:39.261Z,27.74
2023-04-23T14:05:14.221Z,27.70
2023-04-23T14:07:48.046Z,26.56
2023-04-23T14:10:19.279Z,28.02
2023-04-23T14:12:50.591Z,27.91
2023-04-23T14:15:24.422Z,27.58
2023-04-23T14:17:58.517Z,27.66
2023-04-23T14:20:34.706Z,28.02
2023-04-23T14:23:28.964Z,28.07
2023-04-23T14:26:04.491Z,28.10
2023-04-23T14:28:46.052Z,28.35
2023-04-23T14:31:16.769Z,28.20
2023-04-23T14:33:46.162Z,28.01
2023-04-23T14:36:18.449Z,27.53
2023-04-23T14:38:48.934Z,27.31
2023-04-23T14:41:22.490Z,27.68
2023-04-23T14:44:19.157Z,27.23
2023-04-23T14:47:00.388Z,26.66
2023-04-23T14:49:34.455Z,26.53
2023-04-23T14:52:07.143Z,26.92
2023-04-23T14:54:37.321Z,27.32
2023-04-23T14:57:05.611Z,27.37
2023-04-23T14:59:34.046Z,26.88
2023-04-23T15:02:03.222Z,26.60
2023-04-23T15:04:33.262Z,26.07
2023-04-23T15:07:06.060Z,26.08
2023-04-23T15:09:40.483Z,26.24
2023-04-23T15:12:48.663Z,26.01
2023-04-23T15:15:41.131Z,25.57
2023-04-23T15:18:17.678Z,25.40
2023-04-23T15:20:51.631Z,25.26
2023-04-23T15:23:23.439Z,25.24
2023-04-23T15:26:04.640Z,25.05
2023-04-23T15:28:32.750Z,25.00
2023-04-23T15:31:11.629Z,24.63
2023-04-23T15:33:40.145Z,24.31
2023-04-23T15:36:08.871Z,24.17
2023-04-23T15:38:42.415Z,24.38
2023-04-23T15:41:17.367Z,24.34
2023-04-23T15:43:46.837Z,23.62
2023-04-23T15:46:18.053Z,23.95
2023-04-23T15:48:46.195Z,23.55
2023-04-23T15:51:14.266Z,23.40
2023-04-23T15:53:43.124Z,22.99
2023-04-23T15:56:11.056Z,22.73
2023-04-23T15:58:39.062Z,22.55
2023-04-23T16:01:07.711Z,22.26
2023-04-23T16:03:36.236Z,21.96
2023-04-23T16:06:05.512Z,21.00
2023-04-23T16:08:33.724Z,21.18
2023-04-23T16:11:03.754Z,21.04
2023-04-23T16:13:31.520Z,20.68
2023-04-23T16:15:59.571Z,20.54
2023-04-23T16:18:27.767Z,20.14
2023-04-23T16:20:56.023Z,19.91
2023-04-23T16:23:23.940Z,19.98
2023-04-23T16:25:52.389Z,19.83
2023-04-23T16:28:20.303Z,18.93
2023-04-23T16:30:48.771Z,18.14
2023-04-23T16:33:20.473Z,18.07
2023-04-23T16:35:48.402Z,17.89
2023-04-23T16:38:17.186Z,18.41
2023-04-23T16:40:47.630Z,18.42
2023-04-23T16:43:15.644Z,18.22
2023-04-23T16:45:43.831Z,17.93
2023-04-23T16:48:17.715Z,17.86
2023-04-23T16:50:45.900Z,17.78
2023-04-23T16:53:16.740Z,17.59
2023-04-23T16:55:45.377Z,17.37
2023-04-23T16:58:19.624Z,17.00
2023-04-23T17:00:47.867Z,15.93
2023-04-23T17:03:17.444Z,15.45
2023-04-23T17:05:50.837Z,15.61
2023-04-23T17:08:19.187Z,15.98
2023-04-23T17:10:47.520Z,15.51
2023-04-23T17:13:15.563Z,15.14
2023-04-23T17:15:46.534Z,14.13
2023-04-23T17:18:14.516Z,14.29
2023-04-23T17:20:42.729Z,15.21
2023-04-23T17:23:10.943Z,15.66
2023-04-23T17:25:38.942Z,15.53
2023-04-23T17:28:07.242Z,15.24
2023-04-23T17:30:38.426Z,15.32
2023-04-23T17:33:06.507Z,15.23
2023-04-23T17:35:34.416Z,15.21
2023-04-23T17:38:02.706Z,15.07
2023-04-23T17:40:30.599Z,15.06
2023-04-23T17:42:58.512Z,15.24
2023-04-23T17:45:26.739Z,15.47
2023-04-23T17:47:54.816Z,15.33
2023-04-23T17:50:22.759Z,15.06
2023-04-23T17:52:51.904Z,14.82
2023-04-23T17:55:22.226Z,14.61
2023-04-23T17:57:52.072Z,14.57
2023-04-23T18:00:20.168Z,14.66
2023-04-23T18:02:48.663Z,14.48
2023-04-23T18:05:18.244Z,13.91
2023-04-23T18:07:46.196Z,14.06
2023-04-23T18:10:14.357Z,13.10
2023-04-23T18:12:42.268Z,13.08
2023-04-23T18:15:12.671Z,11.67
2023-04-23T18:17:43.247Z,13.14
2023-04-23T18:20:11.428Z,13.62
2023-04-23T18:22:42.604Z,13.70
2023-04-23T18:25:11.844Z,13.06
2023-04-23T18:27:40.248Z,13.25
2023-04-23T18:30:09.229Z,12.58
2023-04-23T18:32:41.915Z,12.67
2023-04-23T18:35:10.383Z,12.93
2023-04-23T18:37:42.548Z,13.34
2023-04-23T18:40:11.758Z,13.16
2023-04-23T18:42:40.153Z,12.06
2023-04-23T18:45:08.804Z,11.47
2023-04-23T18:47:49.504Z,11.36
2023-04-23T18:50:51.842Z,12.14
2023-04-23T18:53:22.056Z,12.64
2023-04-23T18:55:50.518Z,12.40
2023-04-23T18:58:18.526Z,11.38
2023-04-23T19:00:46.823Z,12.41
2023-04-23T19:03:25.876Z,10.79
2023-04-23T19:05:55.603Z,11.40
2023-04-23T19:08:29.076Z,12.23
2023-04-23T19:10:57.446Z,12.17
2023-04-23T19:13:31.825Z,12.21
2023-04-23T19:16:00.221Z,12.27
2023-04-23T19:18:28.685Z,11.81
2023-04-23T19:20:57.262Z,12.11
2023-04-23T19:23:25.531Z,12.10
2023-04-23T19:25:54.315Z,11.58
2023-04-23T19:28:24.759Z,9.47
2023-04-23T19:30:53.471Z,9.50
2023-04-23T19:33:21.547Z,10.62
2023-04-23T19:35:50.008Z,11.30
2023-04-23T19:38:18.460Z,11.46
2023-04-23T19:40:46.997Z,11.22
2023-04-23T19:43:15.171Z,9.82
2023-04-23T19:45:43.389Z,9.83
2023-04-23T19:48:11.390Z,10.23
2023-04-23T19:50:41.413Z,10.87
2023-04-23T19:53:09.890Z,10.48
2023-04-23T19:55:37.732Z,10.38
2023-04-23T19:58:06.804Z,9.25
2023-04-23T20:00:40.881Z,8.48
2023-04-23T20:03:10.101Z,7.63
2023-04-23T20:05:38.572Z,7.36
2023-04-23T20:08:14.946Z,9.13
2023-04-23T20:10:43.872Z,10.39
2023-04-23T20:13:11.928Z,10.73
2023-04-23T20:15:40.016Z,10.69
2023-04-23T20:18:08.329Z,10.79
2023-04-23T20:20:37.009Z,10.80
2023-04-23T20:23:04.925Z,9.34
2023-04-23T20:25:33.761Z,10.17
2023-04-23T20:28:01.688Z,10.49
2023-04-23T20:30:29.726Z,10.19
2023-04-23T20:32:58.141Z,9.85
2023-04-23T20:35:26.173Z,10.06
2023-04-23T20:37:54.922Z,9.45
2023-04-23T20:40:23.205Z,8.62
2023-04-23T20:42:53.096Z,9.23
2023-04-23T20:45:21.175Z,8.87
2023-04-23T20:47:50.516Z,7.59
2023-04-23T20:50:18.353Z,8.77
2023-04-23T20:52:48.070Z,9.47
2023-04-23T20:55:16.283Z,9.47
2023-04-23T20:57:44.153Z,9.37
2023-04-23T21:00:12.511Z,9.86
2023-04-23T21:02:54.101Z,9.95
2023-04-23T21:05:22.269Z,9.85
2023-04-23T21:07:51.088Z,7.23
2023-04-23T21:10:19.584Z,7.94
2023-04-23T21:12:48.742Z,9.14
2023-04-23T21:15:17.802Z,9.39
2023-04-23T21:17:46.705Z,9.58
2023-04-23T21:20:14.838Z,9.49
2023-04-23T21:22:42.757Z,9.59
2023-04-23T21:25:11.051Z,9.61
2023-04-23T21:27:39.127Z,9.68
2023-04-23T21:30:17.855Z,9.61
2023-04-23T21:32:46.256Z,9.52
2023-04-23T21:35:14.177Z,9.21
2023-04-23T21:37:42.093Z,6.73
2023-04-23T21:40:10.897Z,6.15
2023-04-23T21:42:39.289Z,8.28
2023-04-23T21:45:07.847Z,8.25
2023-04-23T21:47:36.603Z,6.86
2023-04-23T21:50:07.308Z,7.68
2023-04-23T21:52:35.636Z,7.27
2023-04-23T21:55:05.245Z,7.85
2023-04-23T21:58:17.357Z,8.68
2023-04-23T22:00:48.231Z,8.89
2023-04-23T22:03:23.465Z,6.61
2023-04-23T22:06:05.169Z,7.81
2023-04-23T22:08:34.344Z,8.04
2023-04-23T22:11:02.532Z,7.29
2023-04-23T22:13:30.453Z,7.84
2023-04-23T22:15:59.460Z,6.65
2023-04-23T22:18:27.448Z,6.71
2023-04-23T22:20:55.314Z,7.88
2023-04-23T22:23:23.486Z,7.96
2023-04-23T22:25:51.406Z,8.11
2023-04-23T22:28:19.351Z,7.82
2023-04-23T22:30:47.600Z,7.48
2023-04-23T22:33:15.485Z,7.15
2023-04-23T22:35:43.305Z,6.84
2023-04-23T22:38:14.808Z,6.37
2023-04-23T22:40:42.648Z,5.96
2023-04-23T22:43:10.581Z,6.51
2023-04-23T22:45:38.866Z,6.44
2023-04-23T22:48:06.657Z,5.54
2023-04-23T22:50:34.463Z,6.94
2023-04-23T22:53:02.704Z,7.20
2023-04-23T22:55:30.660Z,5.98
2023-04-23T22:57:58.677Z,7.48
2023-04-23T23:00:27.283Z,7.47
2023-04-23T23:02:55.286Z,7.75
2023-04-23T23:05:23.289Z,7.36
2023-04-23T23:07:52.195Z,7.27
2023-04-23T23:10:22.641Z,6.62
2023-04-23T23:12:52.582Z,7.42
2023-04-23T23:15:20.775Z,7.18
2023-04-23T23:17:48.736Z,7.52
2023-04-23T23:20:17.263Z,7.64
2023-04-23T23:22:45.100Z,7.30
